sensor_id;sensor_type;location;lat;lon;timestamp;P1;durP1;ratioP1;P2;durP2;ratioP2
20423;SDS011;10371;49.042;8.002;2022-10-23T00:00:31;3.85;;;1.95;;
20423;SDS011;10371;49.042;8.002;2022-10-23T00:01:32;8.48;;;2.30;;
20423;SDS011;10371;49.042;8.002;2022-10-23T00:02:34;6.80;;;2.80;;
20423;SDS011;10371;49.042;8.002;2022-10-23T00:03:34;5.00;;;2.20;;
20423;SDS011;10371;49.042;8.002;2022-10-23T00:04:34;5.43;;;2.30;;
20423;SDS011;10371;49.042;8.002;2022-10-23T00:05:37;6.70;;;2.27;;
20423;SDS011;10371;49.042;8.002;2022-10-23T00:06:38;6.50;;;2.20;;
20423;SDS011;10371;49.042;8.002;2022-10-23T00:07:38;4.93;;;2.47;;
20423;SDS011;10371;49.042;8.002;2022-10-23T00:08:39;5.53;;;2.30;;
20423;SDS011;10371;49.042;8.002;2022-10-23T00:09:40;5.23;;;2.20;;
20423;SDS011;10371;49.042;8.002;2022-10-23T00:10:41;5.43;;;2.30;;
20423;SDS011;10371;49.042;8.002;2022-10-23T00:11:42;6.10;;;2.53;;
20423;SDS011;10371;49.042;8.002;2022-10-23T00:12:43;3.90;;;1.83;;
20423;SDS011;10371;49.042;8.002;2022-10-23T00:13:44;4.72;;;2.08;;
20423;SDS011;10371;49.042;8.002;2022-10-23T00:14:47;5.50;;;2.20;;
20423;SDS011;10371;49.042;8.002;2022-10-23T00:15:48;5.10;;;2.30;;
20423;SDS011;10371;49.042;8.002;2022-10-23T00:16:48;4.00;;;2.30;;
20423;SDS011;10371;49.042;8.002;2022-10-23T00:17:49;4.10;;;2.22;;
20423;SDS011;10371;49.042;8.002;2022-10-23T00:18:49;3.77;;;2.27;;
20423;SDS011;10371;49.042;8.002;2022-10-23T00:19:49;3.38;;;2.38;;
20423;SDS011;10371;49.042;8.002;2022-10-23T00:20:49;4.80;;;2.30;;
20423;SDS011;10371;49.042;8.002;2022-10-23T00:21:50;4.03;;;2.13;;
20423;SDS011;10371;49.042;8.002;2022-10-23T00:22:50;3.20;;;2.20;;
20423;SDS011;10371;49.042;8.002;2022-10-23T00:23:51;4.65;;;2.22;;
20423;SDS011;10371;49.042;8.002;2022-10-23T00:24:51;3.95;;;2.17;;
20423;SDS011;10371;49.042;8.002;2022-10-23T00:25:52;3.90;;;2.13;;
20423;SDS011;10371;49.042;8.002;2022-10-23T00:26:52;4.25;;;2.15;;
20423;SDS011;10371;49.042;8.002;2022-10-23T00:27:52;6.07;;;2.37;;
20423;SDS011;10371;49.042;8.002;2022-10-23T00:28:53;3.17;;;2.20;;
20423;SDS011;10371;49.042;8.002;2022-10-23T00:29:54;5.93;;;2.40;;
20423;SDS011;10371;49.042;8.002;2022-10-23T00:30:54;4.47;;;2.30;;
20423;SDS011;10371;49.042;8.002;2022-10-23T00:31:55;3.92;;;2.10;;
20423;SDS011;10371;49.042;8.002;2022-10-23T00:32:55;6.32;;;2.30;;
20423;SDS011;10371;49.042;8.002;2022-10-23T00:33:55;2.40;;;2.20;;
20423;SDS011;10371;49.042;8.002;2022-10-23T00:34:56;3.17;;;2.03;;
20423;SDS011;10371;49.042;8.002;2022-10-23T00:35:56;8.75;;;2.22;;
20423;SDS011;10371;49.042;8.002;2022-10-23T00:36:56;5.70;;;2.60;;
20423;SDS011;10371;49.042;8.002;2022-10-23T00:37:56;5.53;;;2.25;;
20423;SDS011;10371;49.042;8.002;2022-10-23T00:38:57;3.30;;;2.37;;
20423;SDS011;10371;49.042;8.002;2022-10-23T00:39:57;6.57;;;2.38;;
20423;SDS011;10371;49.042;8.002;2022-10-23T00:40:57;4.33;;;2.27;;
20423;SDS011;10371;49.042;8.002;2022-10-23T00:41:58;4.90;;;2.50;;
20423;SDS011;10371;49.042;8.002;2022-10-23T00:42:58;3.38;;;2.40;;
20423;SDS011;10371;49.042;8.002;2022-10-23T00:44:00;5.10;;;2.20;;
20423;SDS011;10371;49.042;8.002;2022-10-23T00:45:08;5.28;;;2.55;;
20423;SDS011;10371;49.042;8.002;2022-10-23T00:46:11;4.72;;;2.42;;
20423;SDS011;10371;49.042;8.002;2022-10-23T00:47:12;4.38;;;2.50;;
20423;SDS011;10371;49.042;8.002;2022-10-23T00:48:12;4.35;;;2.65;;
20423;SDS011;10371;49.042;8.002;2022-10-23T00:49:14;3.42;;;2.38;;
20423;SDS011;10371;49.042;8.002;2022-10-23T00:50:15;5.25;;;2.85;;
20423;SDS011;10371;49.042;8.002;2022-10-23T00:51:16;3.85;;;2.40;;
20423;SDS011;10371;49.042;8.002;2022-10-23T00:52:16;5.72;;;2.55;;
20423;SDS011;10371;49.042;8.002;2022-10-23T00:53:17;3.55;;;2.53;;
20423;SDS011;10371;49.042;8.002;2022-10-23T00:54:20;5.93;;;2.80;;
20423;SDS011;10371;49.042;8.002;2022-10-23T00:55:22;4.07;;;2.53;;
20423;SDS011;10371;49.042;8.002;2022-10-23T00:56:24;2.90;;;2.25;;
20423;SDS011;10371;49.042;8.002;2022-10-23T00:57:25;2.45;;;2.20;;
20423;SDS011;10371;49.042;8.002;2022-10-23T00:58:25;4.32;;;2.53;;
20423;SDS011;10371;49.042;8.002;2022-10-23T00:59:26;5.10;;;2.50;;
20423;SDS011;10371;49.042;8.002;2022-10-23T01:00:28;10.95;;;2.50;;
20423;SDS011;10371;49.042;8.002;2022-10-23T01:01:39;2.50;;;2.30;;
20423;SDS011;10371;49.042;8.002;2022-10-23T01:02:40;3.47;;;2.50;;
20423;SDS011;10371;49.042;8.002;2022-10-23T01:03:41;5.25;;;2.50;;
20423;SDS011;10371;49.042;8.002;2022-10-23T01:04:41;4.90;;;2.42;;
20423;SDS011;10371;49.042;8.002;2022-10-23T01:07:21;2.90;;;2.40;;
20423;SDS011;10371;49.042;8.002;2022-10-23T01:08:36;2.28;;;2.08;;
20423;SDS011;10371;49.042;8.002;2022-10-23T01:09:48;5.37;;;2.50;;
20423;SDS011;10371;49.042;8.002;2022-10-23T01:11:12;4.88;;;2.38;;
20423;SDS011;10371;49.042;8.002;2022-10-23T01:16:38;4.93;;;2.10;;
20423;SDS011;10371;49.042;8.002;2022-10-23T01:17:56;4.03;;;2.13;;
20423;SDS011;10371;49.042;8.002;2022-10-23T01:19:20;5.05;;;2.60;;
20423;SDS011;10371;49.042;8.002;2022-10-23T01:20:42;3.33;;;2.05;;
20423;SDS011;10371;49.042;8.002;2022-10-23T01:28:33;3.53;;;2.57;;
20423;SDS011;10371;49.042;8.002;2022-10-23T01:29:42;5.75;;;1.98;;
20423;SDS011;10371;49.042;8.002;2022-10-23T01:30:47;5.00;;;2.07;;
20423;SDS011;10371;49.042;8.002;2022-10-23T01:31:54;2.65;;;2.03;;
20423;SDS011;10371;49.042;8.002;2022-10-23T01:34:12;6.25;;;2.45;;
20423;SDS011;10371;49.042;8.002;2022-10-23T01:36:34;4.38;;;2.30;;
20423;SDS011;10371;49.042;8.002;2022-10-23T01:38:44;5.40;;;2.20;;
20423;SDS011;10371;49.042;8.002;2022-10-23T01:39:58;4.83;;;2.30;;
20423;SDS011;10371;49.042;8.002;2022-10-23T01:42:15;2.90;;;2.22;;
20423;SDS011;10371;49.042;8.002;2022-10-23T01:43:24;2.90;;;2.20;;
20423;SDS011;10371;49.042;8.002;2022-10-23T01:44:38;2.72;;;2.20;;
20423;SDS011;10371;49.042;8.002;2022-10-23T01:45:55;2.28;;;2.05;;
20423;SDS011;10371;49.042;8.002;2022-10-23T01:46:59;3.00;;;2.10;;
20423;SDS011;10371;49.042;8.002;2022-10-23T01:48:02;7.00;;;2.45;;
20423;SDS011;10371;49.042;8.002;2022-10-23T01:49:05;5.88;;;2.47;;
20423;SDS011;10371;49.042;8.002;2022-10-23T01:50:08;5.60;;;2.45;;
20423;SDS011;10371;49.042;8.002;2022-10-23T01:51:12;5.35;;;2.42;;
20423;SDS011;10371;49.042;8.002;2022-10-23T01:52:14;3.97;;;2.30;;
20423;SDS011;10371;49.042;8.002;2022-10-23T01:53:17;8.82;;;2.70;;
20423;SDS011;10371;49.042;8.002;2022-10-23T01:54:20;6.30;;;2.43;;
20423;SDS011;10371;49.042;8.002;2022-10-23T01:55:25;4.85;;;2.30;;
20423;SDS011;10371;49.042;8.002;2022-10-23T01:56:27;8.20;;;2.28;;
20423;SDS011;10371;49.042;8.002;2022-10-23T01:57:31;4.47;;;2.40;;
20423;SDS011;10371;49.042;8.002;2022-10-23T01:58:34;3.75;;;2.30;;
20423;SDS011;10371;49.042;8.002;2022-10-23T01:59:43;3.97;;;2.20;;
20423;SDS011;10371;49.042;8.002;2022-10-23T02:00:48;4.68;;;2.05;;
20423;SDS011;10371;49.042;8.002;2022-10-23T02:01:51;4.05;;;2.03;;
20423;SDS011;10371;49.042;8.002;2022-10-23T02:02:55;5.60;;;2.40;;
20423;SDS011;10371;49.042;8.002;2022-10-23T02:03:56;3.78;;;2.08;;
20423;SDS011;10371;49.042;8.002;2022-10-23T02:05:03;3.63;;;2.08;;
20423;SDS011;10371;49.042;8.002;2022-10-23T02:06:11;3.67;;;1.90;;
20423;SDS011;10371;49.042;8.002;2022-10-23T02:07:11;2.22;;;1.90;;
20423;SDS011;10371;49.042;8.002;2022-10-23T02:08:12;2.17;;;1.88;;
20423;SDS011;10371;49.042;8.002;2022-10-23T02:09:13;3.42;;;2.03;;
20423;SDS011;10371;49.042;8.002;2022-10-23T02:10:14;3.72;;;2.13;;
20423;SDS011;10371;49.042;8.002;2022-10-23T02:11:18;3.50;;;2.00;;
20423;SDS011;10371;49.042;8.002;2022-10-23T02:12:32;2.30;;;2.00;;
20423;SDS011;10371;49.042;8.002;2022-10-23T02:16:51;3.30;;;2.00;;
20423;SDS011;10371;49.042;8.002;2022-10-23T02:19:28;5.88;;;2.33;;
20423;SDS011;10371;49.042;8.002;2022-10-23T02:20:42;7.95;;;2.47;;
20423;SDS011;10371;49.042;8.002;2022-10-23T02:21:50;6.88;;;2.33;;
20423;SDS011;10371;49.042;8.002;2022-10-23T02:24:55;4.67;;;2.40;;
20423;SDS011;10371;49.042;8.002;2022-10-23T02:26:03;8.00;;;2.40;;
20423;SDS011;10371;49.042;8.002;2022-10-23T02:27:09;4.88;;;2.33;;
20423;SDS011;10371;49.042;8.002;2022-10-23T02:28:14;3.67;;;2.10;;
20423;SDS011;10371;49.042;8.002;2022-10-23T02:30:19;4.32;;;2.38;;
20423;SDS011;10371;49.042;8.002;2022-10-23T02:31:21;3.25;;;2.20;;
20423;SDS011;10371;49.042;8.002;2022-10-23T02:32:23;3.60;;;1.87;;
20423;SDS011;10371;49.042;8.002;2022-10-23T02:33:26;5.30;;;2.00;;
20423;SDS011;10371;49.042;8.002;2022-10-23T02:34:29;6.25;;;2.28;;
20423;SDS011;10371;49.042;8.002;2022-10-23T02:35:29;4.68;;;2.17;;
20423;SDS011;10371;49.042;8.002;2022-10-23T02:36:29;3.30;;;2.15;;
20423;SDS011;10371;49.042;8.002;2022-10-23T02:37:30;5.60;;;2.28;;
20423;SDS011;10371;49.042;8.002;2022-10-23T02:39:32;2.22;;;1.83;;
20423;SDS011;10371;49.042;8.002;2022-10-23T02:40:34;3.42;;;1.90;;
20423;SDS011;10371;49.042;8.002;2022-10-23T02:41:42;5.63;;;2.20;;
20423;SDS011;10371;49.042;8.002;2022-10-23T02:43:08;4.53;;;2.55;;
20423;SDS011;10371;49.042;8.002;2022-10-23T02:44:24;3.92;;;2.25;;
20423;SDS011;10371;49.042;8.002;2022-10-23T02:45:32;4.63;;;2.30;;
20423;SDS011;10371;49.042;8.002;2022-10-23T02:47:58;4.50;;;2.10;;
20423;SDS011;10371;49.042;8.002;2022-10-23T02:51:19;7.13;;;2.50;;
20423;SDS011;10371;49.042;8.002;2022-10-23T02:52:29;2.40;;;2.17;;
20423;SDS011;10371;49.042;8.002;2022-10-23T02:53:45;3.40;;;2.33;;
20423;SDS011;10371;49.042;8.002;2022-10-23T02:59:26;6.07;;;2.45;;
20423;SDS011;10371;49.042;8.002;2022-10-23T03:00:32;5.10;;;2.23;;
20423;SDS011;10371;49.042;8.002;2022-10-23T03:01:49;2.73;;;2.10;;
20423;SDS011;10371;49.042;8.002;2022-10-23T03:02:56;2.53;;;2.08;;
20423;SDS011;10371;49.042;8.002;2022-10-23T03:04:00;2.40;;;2.20;;
20423;SDS011;10371;49.042;8.002;2022-10-23T03:05:04;3.17;;;2.25;;
20423;SDS011;10371;49.042;8.002;2022-10-23T03:06:07;2.45;;;1.85;;
20423;SDS011;10371;49.042;8.002;2022-10-23T03:07:14;4.33;;;2.23;;
20423;SDS011;10371;49.042;8.002;2022-10-23T03:08:17;5.03;;;2.33;;
20423;SDS011;10371;49.042;8.002;2022-10-23T03:09:17;5.05;;;2.33;;
20423;SDS011;10371;49.042;8.002;2022-10-23T03:10:18;2.63;;;1.90;;
20423;SDS011;10371;49.042;8.002;2022-10-23T03:11:18;6.63;;;2.10;;
20423;SDS011;10371;49.042;8.002;2022-10-23T03:12:19;3.22;;;2.00;;
20423;SDS011;10371;49.042;8.002;2022-10-23T03:13:19;2.03;;;1.77;;
20423;SDS011;10371;49.042;8.002;2022-10-23T03:14:20;2.47;;;2.20;;
20423;SDS011;10371;49.042;8.002;2022-10-23T03:15:20;3.30;;;2.13;;
20423;SDS011;10371;49.042;8.002;2022-10-23T03:16:20;4.43;;;1.90;;
20423;SDS011;10371;49.042;8.002;2022-10-23T03:17:21;4.28;;;1.98;;
20423;SDS011;10371;49.042;8.002;2022-10-23T03:18:21;3.35;;;1.90;;
20423;SDS011;10371;49.042;8.002;2022-10-23T03:19:21;4.90;;;2.07;;
20423;SDS011;10371;49.042;8.002;2022-10-23T03:20:22;5.65;;;1.75;;
20423;SDS011;10371;49.042;8.002;2022-10-23T03:21:22;4.63;;;2.05;;
20423;SDS011;10371;49.042;8.002;2022-10-23T03:22:22;4.63;;;2.23;;
20423;SDS011;10371;49.042;8.002;2022-10-23T03:23:23;3.30;;;1.80;;
20423;SDS011;10371;49.042;8.002;2022-10-23T03:24:23;2.92;;;1.75;;
20423;SDS011;10371;49.042;8.002;2022-10-23T03:25:23;4.10;;;1.85;;
20423;SDS011;10371;49.042;8.002;2022-10-23T03:26:24;3.90;;;2.05;;
20423;SDS011;10371;49.042;8.002;2022-10-23T03:27:24;3.05;;;1.95;;
20423;SDS011;10371;49.042;8.002;2022-10-23T03:28:24;4.05;;;2.08;;
20423;SDS011;10371;49.042;8.002;2022-10-23T03:29:24;3.70;;;2.00;;
20423;SDS011;10371;49.042;8.002;2022-10-23T03:30:25;4.70;;;2.17;;
20423;SDS011;10371;49.042;8.002;2022-10-23T03:31:25;4.05;;;2.00;;
20423;SDS011;10371;49.042;8.002;2022-10-23T03:32:25;3.20;;;1.75;;
20423;SDS011;10371;49.042;8.002;2022-10-23T03:33:26;4.43;;;2.10;;
20423;SDS011;10371;49.042;8.002;2022-10-23T03:34:27;4.50;;;1.90;;
20423;SDS011;10371;49.042;8.002;2022-10-23T03:35:27;4.97;;;2.25;;
20423;SDS011;10371;49.042;8.002;2022-10-23T03:36:27;2.33;;;1.92;;
20423;SDS011;10371;49.042;8.002;2022-10-23T03:37:27;1.85;;;1.73;;
20423;SDS011;10371;49.042;8.002;2022-10-23T03:38:28;2.92;;;2.00;;
20423;SDS011;10371;49.042;8.002;2022-10-23T03:39:28;2.05;;;1.90;;
20423;SDS011;10371;49.042;8.002;2022-10-23T03:40:29;2.35;;;1.85;;
20423;SDS011;10371;49.042;8.002;2022-10-23T03:41:29;1.80;;;1.70;;
20423;SDS011;10371;49.042;8.002;2022-10-23T03:42:30;1.90;;;1.80;;
20423;SDS011;10371;49.042;8.002;2022-10-23T03:43:30;3.95;;;1.70;;
20423;SDS011;10371;49.042;8.002;2022-10-23T03:44:30;3.95;;;2.15;;
20423;SDS011;10371;49.042;8.002;2022-10-23T03:45:31;5.60;;;2.25;;
20423;SDS011;10371;49.042;8.002;2022-10-23T03:46:31;5.20;;;2.10;;
20423;SDS011;10371;49.042;8.002;2022-10-23T03:47:32;5.03;;;2.30;;
20423;SDS011;10371;49.042;8.002;2022-10-23T03:48:34;3.88;;;1.95;;
20423;SDS011;10371;49.042;8.002;2022-10-23T03:49:37;5.15;;;2.00;;
20423;SDS011;10371;49.042;8.002;2022-10-23T03:50:38;3.45;;;1.95;;
20423;SDS011;10371;49.042;8.002;2022-10-23T03:51:38;2.60;;;2.20;;
20423;SDS011;10371;49.042;8.002;2022-10-23T03:52:40;3.08;;;1.80;;
20423;SDS011;10371;49.042;8.002;2022-10-23T03:53:41;5.88;;;2.72;;
20423;SDS011;10371;49.042;8.002;2022-10-23T03:54:41;2.97;;;2.78;;
20423;SDS011;10371;49.042;8.002;2022-10-23T03:55:42;4.10;;;2.95;;
20423;SDS011;10371;49.042;8.002;2022-10-23T03:56:43;3.97;;;2.70;;
20423;SDS011;10371;49.042;8.002;2022-10-23T03:57:43;3.50;;;2.40;;
20423;SDS011;10371;49.042;8.002;2022-10-23T03:58:43;5.15;;;2.65;;
20423;SDS011;10371;49.042;8.002;2022-10-23T03:59:44;2.88;;;2.15;;
20423;SDS011;10371;49.042;8.002;2022-10-23T04:00:44;3.58;;;2.40;;
20423;SDS011;10371;49.042;8.002;2022-10-23T04:01:44;2.60;;;2.40;;
20423;SDS011;10371;49.042;8.002;2022-10-23T04:02:45;4.75;;;2.70;;
20423;SDS011;10371;49.042;8.002;2022-10-23T04:03:45;4.13;;;2.40;;
20423;SDS011;10371;49.042;8.002;2022-10-23T04:04:45;4.72;;;2.17;;
20423;SDS011;10371;49.042;8.002;2022-10-23T04:05:46;2.88;;;2.38;;
20423;SDS011;10371;49.042;8.002;2022-10-23T04:06:46;3.72;;;2.03;;
20423;SDS011;10371;49.042;8.002;2022-10-23T04:07:46;6.07;;;2.25;;
20423;SDS011;10371;49.042;8.002;2022-10-23T04:08:46;3.53;;;2.13;;
20423;SDS011;10371;49.042;8.002;2022-10-23T04:09:47;5.30;;;2.30;;
20423;SDS011;10371;49.042;8.002;2022-10-23T04:10:47;7.32;;;2.40;;
20423;SDS011;10371;49.042;8.002;2022-10-23T04:11:47;4.68;;;2.30;;
20423;SDS011;10371;49.042;8.002;2022-10-23T04:12:48;3.42;;;2.00;;
20423;SDS011;10371;49.042;8.002;2022-10-23T04:13:48;6.90;;;2.50;;
20423;SDS011;10371;49.042;8.002;2022-10-23T04:14:48;4.00;;;1.97;;
20423;SDS011;10371;49.042;8.002;2022-10-23T04:15:52;4.90;;;2.05;;
20423;SDS011;10371;49.042;8.002;2022-10-23T04:16:52;6.60;;;2.93;;
20423;SDS011;10371;49.042;8.002;2022-10-23T04:17:52;3.33;;;1.90;;
20423;SDS011;10371;49.042;8.002;2022-10-23T04:18:53;3.97;;;1.90;;
20423;SDS011;10371;49.042;8.002;2022-10-23T04:19:53;3.00;;;2.00;;
20423;SDS011;10371;49.042;8.002;2022-10-23T04:20:53;4.67;;;2.00;;
20423;SDS011;10371;49.042;8.002;2022-10-23T04:21:54;4.28;;;2.00;;
20423;SDS011;10371;49.042;8.002;2022-10-23T04:22:56;4.23;;;2.00;;
20423;SDS011;10371;49.042;8.002;2022-10-23T04:23:56;3.55;;;1.70;;
20423;SDS011;10371;49.042;8.002;2022-10-23T04:24:56;3.13;;;1.90;;
20423;SDS011;10371;49.042;8.002;2022-10-23T04:25:57;2.20;;;2.05;;
20423;SDS011;10371;49.042;8.002;2022-10-23T04:26:57;4.22;;;2.10;;
20423;SDS011;10371;49.042;8.002;2022-10-23T04:27:58;5.07;;;2.30;;
20423;SDS011;10371;49.042;8.002;2022-10-23T04:28:58;2.50;;;2.10;;
20423;SDS011;10371;49.042;8.002;2022-10-23T04:29:59;4.32;;;1.90;;
20423;SDS011;10371;49.042;8.002;2022-10-23T04:30:59;4.13;;;2.27;;
20423;SDS011;10371;49.042;8.002;2022-10-23T04:31:59;5.60;;;2.72;;
20423;SDS011;10371;49.042;8.002;2022-10-23T04:33:00;2.50;;;1.90;;
20423;SDS011;10371;49.042;8.002;2022-10-23T04:34:00;2.28;;;2.08;;
20423;SDS011;10371;49.042;8.002;2022-10-23T04:35:00;4.78;;;2.15;;
20423;SDS011;10371;49.042;8.002;2022-10-23T04:36:01;6.73;;;2.47;;
20423;SDS011;10371;49.042;8.002;2022-10-23T04:37:01;2.65;;;2.30;;
20423;SDS011;10371;49.042;8.002;2022-10-23T04:38:01;6.05;;;2.58;;
20423;SDS011;10371;49.042;8.002;2022-10-23T04:39:02;4.03;;;2.50;;
20423;SDS011;10371;49.042;8.002;2022-10-23T04:40:02;4.00;;;2.40;;
20423;SDS011;10371;49.042;8.002;2022-10-23T04:41:03;2.63;;;2.10;;
20423;SDS011;10371;49.042;8.002;2022-10-23T04:42:03;4.20;;;2.30;;
20423;SDS011;10371;49.042;8.002;2022-10-23T04:43:04;3.53;;;2.00;;
20423;SDS011;10371;49.042;8.002;2022-10-23T04:44:04;6.15;;;2.38;;
20423;SDS011;10371;49.042;8.002;2022-10-23T04:45:04;3.75;;;2.40;;
20423;SDS011;10371;49.042;8.002;2022-10-23T04:46:05;3.95;;;2.00;;
20423;SDS011;10371;49.042;8.002;2022-10-23T04:47:05;2.78;;;2.10;;
20423;SDS011;10371;49.042;8.002;2022-10-23T04:48:06;3.08;;;2.28;;
20423;SDS011;10371;49.042;8.002;2022-10-23T04:49:06;2.30;;;2.10;;
20423;SDS011;10371;49.042;8.002;2022-10-23T04:50:06;4.05;;;2.20;;
20423;SDS011;10371;49.042;8.002;2022-10-23T04:51:07;2.85;;;2.08;;
20423;SDS011;10371;49.042;8.002;2022-10-23T04:52:08;4.50;;;2.28;;
20423;SDS011;10371;49.042;8.002;2022-10-23T04:53:09;5.38;;;2.28;;
20423;SDS011;10371;49.042;8.002;2022-10-23T04:54:09;6.65;;;2.55;;
20423;SDS011;10371;49.042;8.002;2022-10-23T04:55:09;5.03;;;2.45;;
20423;SDS011;10371;49.042;8.002;2022-10-23T04:56:11;4.10;;;2.22;;
20423;SDS011;10371;49.042;8.002;2022-10-23T04:57:13;3.50;;;2.20;;
20423;SDS011;10371;49.042;8.002;2022-10-23T04:58:14;3.17;;;2.40;;
20423;SDS011;10371;49.042;8.002;2022-10-23T04:59:14;5.90;;;2.33;;
20423;SDS011;10371;49.042;8.002;2022-10-23T05:00:15;5.03;;;2.45;;
20423;SDS011;10371;49.042;8.002;2022-10-23T05:01:15;4.00;;;2.47;;
20423;SDS011;10371;49.042;8.002;2022-10-23T05:02:15;6.80;;;2.67;;
20423;SDS011;10371;49.042;8.002;2022-10-23T05:03:16;3.40;;;2.40;;
20423;SDS011;10371;49.042;8.002;2022-10-23T05:04:17;4.32;;;2.30;;
20423;SDS011;10371;49.042;8.002;2022-10-23T05:05:18;3.90;;;2.30;;
20423;SDS011;10371;49.042;8.002;2022-10-23T05:06:18;2.70;;;2.50;;
20423;SDS011;10371;49.042;8.002;2022-10-23T05:07:19;2.90;;;2.13;;
20423;SDS011;10371;49.042;8.002;2022-10-23T05:08:19;3.60;;;2.10;;
20423;SDS011;10371;49.042;8.002;2022-10-23T05:09:20;6.55;;;2.55;;
20423;SDS011;10371;49.042;8.002;2022-10-23T05:10:21;3.35;;;2.40;;
20423;SDS011;10371;49.042;8.002;2022-10-23T05:11:21;3.83;;;2.80;;
20423;SDS011;10371;49.042;8.002;2022-10-23T05:12:22;3.55;;;2.90;;
20423;SDS011;10371;49.042;8.002;2022-10-23T05:13:24;6.45;;;3.15;;
20423;SDS011;10371;49.042;8.002;2022-10-23T05:14:24;4.45;;;2.90;;
20423;SDS011;10371;49.042;8.002;2022-10-23T05:15:24;3.20;;;2.78;;
20423;SDS011;10371;49.042;8.002;2022-10-23T05:17:36;4.22;;;2.95;;
20423;SDS011;10371;49.042;8.002;2022-10-23T05:18:43;6.47;;;3.03;;
20423;SDS011;10371;49.042;8.002;2022-10-23T05:19:50;8.10;;;2.95;;
20423;SDS011;10371;49.042;8.002;2022-10-23T05:21:05;4.20;;;3.03;;
20423;SDS011;10371;49.042;8.002;2022-10-23T05:22:21;5.50;;;3.15;;
20423;SDS011;10371;49.042;8.002;2022-10-23T05:23:24;3.50;;;3.20;;
20423;SDS011;10371;49.042;8.002;2022-10-23T05:24:26;5.10;;;3.15;;
20423;SDS011;10371;49.042;8.002;2022-10-23T05:25:27;4.22;;;3.03;;
20423;SDS011;10371;49.042;8.002;2022-10-23T05:26:32;4.87;;;3.90;;
20423;SDS011;10371;49.042;8.002;2022-10-23T05:27:32;6.38;;;3.85;;
20423;SDS011;10371;49.042;8.002;2022-10-23T05:28:32;8.37;;;3.73;;
20423;SDS011;10371;49.042;8.002;2022-10-23T05:29:33;4.68;;;3.72;;
20423;SDS011;10371;49.042;8.002;2022-10-23T05:30:33;6.23;;;4.07;;
20423;SDS011;10371;49.042;8.002;2022-10-23T05:31:33;6.17;;;3.70;;
20423;SDS011;10371;49.042;8.002;2022-10-23T05:32:34;4.10;;;3.70;;
20423;SDS011;10371;49.042;8.002;2022-10-23T05:33:36;3.85;;;3.55;;
20423;SDS011;10371;49.042;8.002;2022-10-23T05:34:36;5.07;;;3.80;;
20423;SDS011;10371;49.042;8.002;2022-10-23T05:35:37;5.93;;;4.00;;
20423;SDS011;10371;49.042;8.002;2022-10-23T05:36:39;7.23;;;3.43;;
20423;SDS011;10371;49.042;8.002;2022-10-23T05:37:41;3.55;;;3.08;;
20423;SDS011;10371;49.042;8.002;2022-10-23T05:38:44;6.32;;;3.33;;
20423;SDS011;10371;49.042;8.002;2022-10-23T05:39:45;3.55;;;3.22;;
20423;SDS011;10371;49.042;8.002;2022-10-23T05:40:45;6.73;;;3.00;;
20423;SDS011;10371;49.042;8.002;2022-10-23T05:41:46;5.47;;;3.13;;
20423;SDS011;10371;49.042;8.002;2022-10-23T05:42:46;3.70;;;2.97;;
20423;SDS011;10371;49.042;8.002;2022-10-23T05:43:46;3.95;;;2.90;;
20423;SDS011;10371;49.042;8.002;2022-10-23T05:44:47;3.40;;;3.10;;
20423;SDS011;10371;49.042;8.002;2022-10-23T05:45:47;3.20;;;2.90;;
20423;SDS011;10371;49.042;8.002;2022-10-23T05:46:48;4.83;;;3.00;;
20423;SDS011;10371;49.042;8.002;2022-10-23T05:47:48;4.90;;;3.10;;
20423;SDS011;10371;49.042;8.002;2022-10-23T05:48:49;3.10;;;2.80;;
20423;SDS011;10371;49.042;8.002;2022-10-23T05:49:50;4.25;;;2.97;;
20423;SDS011;10371;49.042;8.002;2022-10-23T05:50:50;5.03;;;3.03;;
20423;SDS011;10371;49.042;8.002;2022-10-23T05:51:51;3.92;;;3.47;;
20423;SDS011;10371;49.042;8.002;2022-10-23T05:52:51;4.10;;;3.20;;
20423;SDS011;10371;49.042;8.002;2022-10-23T05:53:53;5.20;;;4.70;;
20423;SDS011;10371;49.042;8.002;2022-10-23T05:54:54;6.72;;;5.35;;
20423;SDS011;10371;49.042;8.002;2022-10-23T05:55:54;24.73;;;22.15;;
20423;SDS011;10371;49.042;8.002;2022-10-23T05:56:54;61.15;;;51.25;;
20423;SDS011;10371;49.042;8.002;2022-10-23T05:57:55;67.47;;;58.38;;
20423;SDS011;10371;49.042;8.002;2022-10-23T05:58:56;91.73;;;77.93;;
20423;SDS011;10371;49.042;8.002;2022-10-23T05:59:56;93.70;;;79.57;;
20423;SDS011;10371;49.042;8.002;2022-10-23T06:00:56;95.27;;;80.00;;
20423;SDS011;10371;49.042;8.002;2022-10-23T06:01:56;107.13;;;94.13;;
20423;SDS011;10371;49.042;8.002;2022-10-23T06:03:00;105.93;;;90.73;;
20423;SDS011;10371;49.042;8.002;2022-10-23T06:04:01;109.93;;;91.10;;
20423;SDS011;10371;49.042;8.002;2022-10-23T06:05:02;105.53;;;92.40;;
20423;SDS011;10371;49.042;8.002;2022-10-23T06:06:03;100.93;;;85.63;;
20423;SDS011;10371;49.042;8.002;2022-10-23T06:07:05;76.37;;;64.10;;
20423;SDS011;10371;49.042;8.002;2022-10-23T06:08:05;61.43;;;51.00;;
20423;SDS011;10371;49.042;8.002;2022-10-23T06:09:05;66.83;;;54.07;;
20423;SDS011;10371;49.042;8.002;2022-10-23T06:10:05;56.17;;;49.85;;
20423;SDS011;10371;49.042;8.002;2022-10-23T06:11:07;60.07;;;52.53;;
20423;SDS011;10371;49.042;8.002;2022-10-23T06:12:09;53.47;;;47.70;;
20423;SDS011;10371;49.042;8.002;2022-10-23T06:13:09;40.53;;;36.07;;
20423;SDS011;10371;49.042;8.002;2022-10-23T06:14:09;34.77;;;29.77;;
20423;SDS011;10371;49.042;8.002;2022-10-23T06:15:10;27.93;;;22.57;;
20423;SDS011;10371;49.042;8.002;2022-10-23T06:16:11;20.63;;;18.42;;
20423;SDS011;10371;49.042;8.002;2022-10-23T06:17:13;17.35;;;15.07;;
20423;SDS011;10371;49.042;8.002;2022-10-23T06:18:13;16.67;;;14.37;;
20423;SDS011;10371;49.042;8.002;2022-10-23T06:19:13;16.10;;;14.50;;
20423;SDS011;10371;49.042;8.002;2022-10-23T06:20:14;14.80;;;12.57;;
20423;SDS011;10371;49.042;8.002;2022-10-23T06:21:14;11.48;;;10.23;;
20423;SDS011;10371;49.042;8.002;2022-10-23T06:22:15;7.73;;;6.60;;
20423;SDS011;10371;49.042;8.002;2022-10-23T06:23:15;6.93;;;5.57;;
20423;SDS011;10371;49.042;8.002;2022-10-23T06:24:15;5.23;;;4.57;;
20423;SDS011;10371;49.042;8.002;2022-10-23T06:25:16;9.40;;;3.90;;
20423;SDS011;10371;49.042;8.002;2022-10-23T06:26:17;5.13;;;3.77;;
20423;SDS011;10371;49.042;8.002;2022-10-23T06:27:18;4.07;;;3.60;;
20423;SDS011;10371;49.042;8.002;2022-10-23T06:28:18;5.40;;;3.00;;
20423;SDS011;10371;49.042;8.002;2022-10-23T06:29:18;3.63;;;2.60;;
20423;SDS011;10371;49.042;8.002;2022-10-23T06:30:18;3.90;;;2.50;;
20423;SDS011;10371;49.042;8.002;2022-10-23T06:31:19;3.40;;;2.70;;
20423;SDS011;10371;49.042;8.002;2022-10-23T06:32:22;3.13;;;2.70;;
20423;SDS011;10371;49.042;8.002;2022-10-23T06:33:22;3.40;;;2.80;;
20423;SDS011;10371;49.042;8.002;2022-10-23T06:34:23;4.73;;;2.83;;
20423;SDS011;10371;49.042;8.002;2022-10-23T06:35:23;3.88;;;3.13;;
20423;SDS011;10371;49.042;8.002;2022-10-23T06:36:23;3.27;;;2.97;;
20423;SDS011;10371;49.042;8.002;2022-10-23T06:37:24;4.53;;;3.50;;
20423;SDS011;10371;49.042;8.002;2022-10-23T06:38:24;4.97;;;3.42;;
20423;SDS011;10371;49.042;8.002;2022-10-23T06:39:25;3.75;;;3.30;;
20423;SDS011;10371;49.042;8.002;2022-10-23T06:40:25;4.27;;;3.60;;
20423;SDS011;10371;49.042;8.002;2022-10-23T06:41:25;4.73;;;4.03;;
20423;SDS011;10371;49.042;8.002;2022-10-23T06:42:25;11.10;;;4.20;;
20423;SDS011;10371;49.042;8.002;2022-10-23T06:43:26;5.30;;;3.88;;
20423;SDS011;10371;49.042;8.002;2022-10-23T06:44:26;7.82;;;3.88;;
20423;SDS011;10371;49.042;8.002;2022-10-23T06:45:26;5.97;;;3.83;;
20423;SDS011;10371;49.042;8.002;2022-10-23T06:46:28;6.20;;;4.05;;
20423;SDS011;10371;49.042;8.002;2022-10-23T06:47:31;5.90;;;3.50;;
20423;SDS011;10371;49.042;8.002;2022-10-23T06:48:32;4.78;;;3.33;;
20423;SDS011;10371;49.042;8.002;2022-10-23T06:49:32;4.20;;;3.40;;